Time;durP1;ratioP1;P1;durP2;ratioP2;P2;SDS_P1;SDS_P2;PMS_P1;PMS_P2;Temp;Humidity;BMP_temperature;BMP_pressure;BME280_temperature;BME280_humidity;BME280_pressure;Samples;Min_cycle;Max_cycle;Signal;HPM_P1;HPM_P2
2023/09/07 00:00:33;;;;;;;4.80;4.30;;;20.40;91.90;;;;;;5081781;28;20434;-71
2023/09/07 00:03:00;;;;;;;5.00;4.50;;;20.40;91.10;;;;;;5081840;28;20440;-72
2023/09/07 00:05:26;;;;;;;4.97;4.47;;;20.40;91.60;;;;;;5081372;28;20505;-71
2023/09/07 00:07:53;;;;;;;4.97;4.57;;;20.40;91.90;;;;;;5080691;28;20421;-71
2023/09/07 00:10:20;;;;;;;5.30;4.55;;;20.30;91.40;;;;;;5081051;28;20525;-71
2023/09/07 00:12:46;;;;;;;5.60;4.70;;;20.30;91.60;;;;;;5081854;28;20410;-71
2023/09/07 00:15:13;;;;;;;4.40;4.00;;;20.20;91.30;;;;;;5078939;28;20773;-71
2023/09/07 00:17:41;;;;;;;4.80;4.40;;;20.20;91.40;;;;;;5082238;28;20430;-71
2023/09/07 00:20:11;;;;;;;4.88;4.47;;;20.20;91.40;;;;;;5084301;28;20429;-71
2023/09/07 00:22:38;;;;;;;5.27;4.50;;;20.20;91.00;;;;;;5085162;28;20436;-71
2023/09/07 00:25:06;;;;;;;5.50;4.30;;;20.20;91.30;;;;;;5083700;28;20448;-71
2023/09/07 00:27:33;;;;;;;4.70;4.30;;;20.20;91.40;;;;;;5082919;28;20463;-71
2023/09/07 00:30:00;;;;;;;4.93;4.53;;;20.20;91.90;;;;;;5082263;28;20440;-72
2023/09/07 00:32:27;;;;;;;5.10;4.60;;;20.20;91.10;;;;;;5078492;28;20753;-71
2023/09/07 00:34:55;;;;;;;5.23;4.37;;;20.10;91.60;;;;;;5081966;28;20891;-71
2023/09/07 00:37:21;;;;;;;5.05;4.63;;;20.10;91.50;;;;;;5082642;28;20456;-71
2023/09/07 00:39:48;;;;;;;5.03;4.50;;;20.10;92.20;;;;;;5079924;28;20463;-72
2023/09/07 00:42:15;;;;;;;4.85;4.45;;;20.10;92.20;;;;;;5080952;28;20489;-71
2023/09/07 00:44:41;;;;;;;5.20;4.60;;;20.00;92.10;;;;;;5081708;28;20933;-71
2023/09/07 00:47:08;;;;;;;5.30;4.80;;;20.00;92.30;;;;;;5083476;28;20405;-71
2023/09/07 00:49:35;;;;;;;5.25;4.80;;;19.90;92.80;;;;;;5079668;28;20877;-70
2023/09/07 00:52:04;;;;;;;5.05;4.60;;;19.90;93.30;;;;;;5081409;28;20904;-70
2023/09/07 00:54:31;;;;;;;5.20;4.80;;;19.80;92.90;;;;;;5079239;28;20936;-71
2023/09/07 00:56:58;;;;;;;5.20;4.70;;;19.80;93.40;;;;;;5079817;28;20590;-71
2023/09/07 00:59:25;;;;;;;6.47;4.97;;;19.80;93.20;;;;;;5079670;28;20438;-71
2023/09/07 01:01:52;;;;;;;4.82;4.43;;;19.70;94.00;;;;;;5082247;28;20879;-70
2023/09/07 01:04:19;;;;;;;5.07;4.57;;;19.70;93.80;;;;;;5079965;28;20426;-73
2023/09/07 01:06:52;;;;;;;5.60;5.10;;;19.70;93.80;;;;;;5081392;28;20434;-72
2023/09/07 01:09:22;;;;;;;5.50;5.00;;;19.60;93.90;;;;;;5073241;28;20433;-72
2023/09/07 01:11:50;;;;;;;5.47;4.70;;;19.60;94.10;;;;;;5078950;28;20577;-72
2023/09/07 01:14:17;;;;;;;5.90;4.90;;;19.50;93.90;;;;;;5082277;28;20426;-72
2023/09/07 01:16:44;;;;;;;5.65;5.10;;;19.50;93.80;;;;;;5081959;28;20433;-72
2023/09/07 01:19:11;;;;;;;5.30;4.80;;;19.40;93.90;;;;;;5083399;28;20471;-72
2023/09/07 01:21:40;;;;;;;5.22;4.75;;;19.40;94.10;;;;;;5081539;28;20881;-72
2023/09/07 01:24:09;;;;;;;5.20;4.68;;;19.30;93.60;;;;;;5080975;28;20424;-72
2023/09/07 01:26:38;;;;;;;5.35;4.75;;;19.30;93.60;;;;;;5081123;28;20437;-72
2023/09/07 01:29:05;;;;;;;5.27;4.80;;;19.20;94.00;;;;;;5086006;28;20524;-72
2023/09/07 01:31:35;;;;;;;5.38;4.88;;;19.20;94.10;;;;;;5084511;28;20516;-71
2023/09/07 01:34:02;;;;;;;5.25;4.35;;;19.20;94.10;;;;;;5083416;28;20430;-70
2023/09/07 01:36:29;;;;;;;5.80;5.10;;;19.20;94.00;;;;;;5085034;28;20919;-71
2023/09/07 01:38:57;;;;;;;6.05;4.75;;;19.10;93.90;;;;;;5083831;28;20765;-72
2023/09/07 01:41:24;;;;;;;5.30;4.80;;;19.10;93.90;;;;;;5084365;28;20540;-71
2023/09/07 01:43:51;;;;;;;5.30;4.80;;;19.10;94.60;;;;;;5084048;28;20490;-71
2023/09/07 01:46:18;;;;;;;5.60;5.10;;;19.10;94.50;;;;;;5084169;28;20425;-71
2023/09/07 01:48:44;;;;;;;5.00;4.50;;;19.10;94.50;;;;;;5080253;28;20429;-70
2023/09/07 01:51:11;;;;;;;5.40;4.90;;;19.10;94.80;;;;;;5084687;28;20436;-72
2023/09/07 01:53:38;;;;;;;5.23;4.60;;;19.00;94.80;;;;;;5082870;28;20607;-70
2023/09/07 01:56:06;;;;;;;4.85;4.45;;;19.10;94.90;;;;;;5080492;28;21110;-71
2023/09/07 01:58:34;;;;;;;5.10;4.60;;;19.10;95.30;;;;;;5077641;28;20703;-72
2023/09/07 02:01:01;;;;;;;5.05;4.55;;;19.10;95.50;;;;;;5082592;28;20426;-70
2023/09/07 02:03:28;;;;;;;5.75;5.15;;;19.10;95.40;;;;;;5070968;28;20585;-71
2023/09/07 02:05:54;;;;;;;5.53;4.30;;;19.00;95.60;;;;;;5084521;28;20422;-70
2023/09/07 02:08:22;;;;;;;5.20;4.80;;;19.10;95.20;;;;;;5075816;28;20413;-71
2023/09/07 02:10:48;;;;;;;5.65;5.05;;;19.10;95.40;;;;;;5084229;28;20426;-71
2023/09/07 02:13:16;;;;;;;4.70;4.30;;;19.00;95.60;;;;;;5085095;28;20506;-71
2023/09/07 02:15:43;;;;;;;5.07;4.57;;;19.10;95.10;;;;;;5083461;28;20429;-71
2023/09/07 02:18:10;;;;;;;4.90;4.50;;;19.00;95.00;;;;;;5081072;28;20453;-70
2023/09/07 02:20:37;;;;;;;4.93;4.47;;;19.00;95.30;;;;;;5084514;28;20424;-70
2023/09/07 02:23:04;;;;;;;6.50;5.00;;;19.00;95.60;;;;;;5083976;28;20410;-70
2023/09/07 02:25:31;;;;;;;5.30;4.80;;;19.00;95.70;;;;;;5082946;28;21215;-71
2023/09/07 02:27:57;;;;;;;5.20;4.80;;;19.00;95.80;;;;;;5083349;28;20442;-73
2023/09/07 02:30:25;;;;;;;5.03;4.53;;;19.00;95.90;;;;;;5082797;28;20444;-70
2023/09/07 02:32:53;;;;;;;5.10;4.70;;;18.90;96.00;;;;;;5084281;28;20632;-71
2023/09/07 02:35:19;;;;;;;4.68;4.28;;;18.90;96.20;;;;;;5084122;28;20426;-71
2023/09/07 02:37:46;;;;;;;5.10;4.60;;;18.90;96.20;;;;;;5085465;28;20432;-70
2023/09/07 02:40:15;;;;;;;5.00;4.50;;;18.90;96.30;;;;;;5086194;28;20493;-70
2023/09/07 02:42:42;;;;;;;5.07;4.57;;;18.90;95.70;;;;;;5083031;28;20429;-71
2023/09/07 02:45:11;;;;;;;4.80;4.40;;;18.80;95.70;;;;;;5085103;28;20420;-70
2023/09/07 02:47:39;;;;;;;5.60;4.90;;;18.80;95.30;;;;;;5084012;28;20477;-71
2023/09/07 02:50:07;;;;;;;5.37;4.87;;;18.80;95.60;;;;;;5082962;28;20433;-70
2023/09/07 02:52:34;;;;;;;5.10;4.60;;;18.80;95.70;;;;;;5079490;28;20402;-71
2023/09/07 02:55:00;;;;;;;5.03;4.63;;;18.70;95.70;;;;;;5077370;28;20454;-71
2023/09/07 02:57:27;;;;;;;4.57;4.18;;;18.60;96.00;;;;;;5082576;28;20449;-71
2023/09/07 02:59:54;;;;;;;4.93;4.45;;;18.60;95.90;;;;;;5082787;28;20422;-71
2023/09/07 03:02:21;;;;;;;5.10;4.60;;;18.60;96.40;;;;;;5083750;28;20434;-71
2023/09/07 03:04:54;;;;;;;5.28;4.88;;;18.60;96.30;;;;;;5084612;28;20498;-71
2023/09/07 03:07:21;;;;;;;5.20;4.70;;;18.60;96.70;;;;;;5083274;28;20520;-71
2023/09/07 03:09:48;;;;;;;6.05;5.00;;;18.60;96.30;;;;;;5083771;28;20792;-71
2023/09/07 03:12:14;;;;;;;6.00;5.40;;;18.60;96.30;;;;;;5081463;28;20438;-71
2023/09/07 03:14:44;;;;;;;5.95;4.60;;;18.60;96.40;;;;;;5080725;28;20432;-70
2023/09/07 03:17:11;;;;;;;5.05;4.65;;;18.60;95.80;;;;;;5082755;28;20425;-71
2023/09/07 03:19:38;;;;;;;4.77;4.27;;;18.50;96.50;;;;;;5082782;28;20923;-71
2023/09/07 03:22:06;;;;;;;5.18;4.68;;;18.50;96.70;;;;;;5079368;28;20501;-71
2023/09/07 03:24:33;;;;;;;5.70;5.10;;;18.50;96.00;;;;;;5080351;28;20416;-71
2023/09/07 03:27:00;;;;;;;5.22;4.78;;;18.40;96.80;;;;;;5080338;28;20449;-70
2023/09/07 03:29:26;;;;;;;5.60;5.10;;;18.40;96.60;;;;;;5083117;28;20435;-71
2023/09/07 03:31:53;;;;;;;5.32;4.82;;;18.40;97.00;;;;;;5081814;28;20441;-71
2023/09/07 03:34:20;;;;;;;5.50;5.00;;;18.40;96.30;;;;;;5083286;28;20716;-70
2023/09/07 03:36:47;;;;;;;5.45;4.63;;;18.40;96.60;;;;;;5081956;28;20520;-71
2023/09/07 03:39:15;;;;;;;5.28;4.88;;;18.40;97.00;;;;;;5082279;28;20430;-71
2023/09/07 03:41:42;;;;;;;5.90;5.03;;;18.30;96.80;;;;;;5082602;28;20417;-71
2023/09/07 03:44:09;;;;;;;5.30;4.90;;;18.40;96.80;;;;;;5082753;28;20426;-71
2023/09/07 03:46:35;;;;;;;5.45;5.00;;;18.30;96.90;;;;;;5079983;28;20446;-70
2023/09/07 03:49:02;;;;;;;5.40;4.90;;;18.30;96.80;;;;;;5084727;28;20414;-70
2023/09/07 03:51:29;;;;;;;5.40;4.90;;;18.30;97.10;;;;;;5077650;28;20418;-70
2023/09/07 03:53:55;;;;;;;5.18;4.78;;;18.30;96.80;;;;;;5080346;28;20444;-71
2023/09/07 03:56:24;;;;;;;5.23;4.80;;;18.30;97.10;;;;;;5083033;28;20711;-71
2023/09/07 03:58:50;;;;;;;5.55;5.05;;;18.20;97.20;;;;;;5082897;28;20621;-71
2023/09/07 04:01:17;;;;;;;5.37;4.63;;;18.20;97.20;;;;;;5083554;28;20438;-71
2023/09/07 04:03:44;;;;;;;4.70;4.30;;;18.20;96.80;;;;;;5083447;28;20425;-71
2023/09/07 04:06:10;;;;;;;6.10;5.00;;;18.20;96.60;;;;;;5084204;28;20535;-71
2023/09/07 04:08:38;;;;;;;5.38;4.40;;;18.10;96.50;;;;;;5084292;28;20440;-71
2023/09/07 04:11:05;;;;;;;5.43;4.93;;;18.10;96.40;;;;;;5077228;28;20436;-71
2023/09/07 04:13:33;;;;;;;5.90;4.30;;;18.10;96.90;;;;;;5082521;28;20456;-71
2023/09/07 04:16:00;;;;;;;5.27;4.67;;;18.10;96.50;;;;;;5079433;28;20906;-70
2023/09/07 04:18:27;;;;;;;5.43;4.73;;;18.10;96.80;;;;;;5082798;28;20433;-71
2023/09/07 04:20:53;;;;;;;5.57;4.40;;;18.00;96.70;;;;;;5080939;28;20782;-71
2023/09/07 04:23:20;;;;;;;5.20;4.70;;;18.00;96.70;;;;;;5083302;28;20410;-71
2023/09/07 04:25:47;;;;;;;5.30;4.80;;;18.00;96.90;;;;;;5079370;28;20435;-71
2023/09/07 04:28:14;;;;;;;5.30;4.80;;;18.00;96.60;;;;;;5079286;28;20445;-73
2023/09/07 04:30:43;;;;;;;5.60;5.10;;;18.00;96.60;;;;;;5081711;28;20463;-73
2023/09/07 04:33:10;;;;;;;5.55;4.97;;;17.90;96.10;;;;;;5081317;28;20405;-73
2023/09/07 04:35:36;;;;;;;8.48;5.40;;;17.80;96.60;;;;;;5081646;28;20792;-73
2023/09/07 04:38:03;;;;;;;6.00;5.40;;;17.80;97.00;;;;;;5080210;28;20422;-73
2023/09/07 04:40:30;;;;;;;5.80;5.30;;;17.70;97.10;;;;;;5079450;28;20498;-73
2023/09/07 04:42:57;;;;;;;5.60;5.10;;;17.70;97.30;;;;;;5073346;28;20460;-72
2023/09/07 04:45:24;;;;;;;5.22;4.82;;;17.60;97.60;;;;;;5075027;28;20449;-72
2023/09/07 04:47:52;;;;;;;5.85;5.30;;;17.50;97.70;;;;;;5078429;28;20635;-73
2023/09/07 04:50:18;;;;;;;5.40;4.90;;;17.40;98.00;;;;;;5080510;28;20452;-73
2023/09/07 04:52:45;;;;;;;5.72;5.00;;;17.40;98.20;;;;;;5081851;28;20853;-73
2023/09/07 04:55:12;;;;;;;5.82;5.22;;;17.40;98.30;;;;;;5082054;28;20444;-73
2023/09/07 04:57:39;;;;;;;5.65;5.15;;;17.30;98.10;;;;;;5079357;28;20410;-72
2023/09/07 05:00:07;;;;;;;6.75;5.13;;;17.30;98.20;;;;;;5079927;28;20426;-72
2023/09/07 05:05:04;;;;;;;5.65;5.15;;;17.30;99.40;;;;;;5041527;28;20781;-68
2023/09/07 05:07:30;;;;;;;5.50;5.00;;;17.30;98.60;;;;;;5051293;28;20426;-68
2023/09/07 05:09:57;;;;;;;5.28;4.78;;;17.50;99.00;;;;;;5051500;28;20425;-68
2023/09/07 05:12:24;;;;;;;5.10;4.60;;;17.50;98.10;;;;;;5054228;28;20417;-69
2023/09/07 05:14:51;;;;;;;5.55;4.90;;;17.60;98.10;;;;;;5055573;28;20903;-68
2023/09/07 05:17:17;;;;;;;6.53;4.93;;;17.70;98.10;;;;;;5049733;28;20433;-68
2023/09/07 05:19:44;;;;;;;5.40;4.90;;;17.70;97.50;;;;;;5050559;28;20912;-68
2023/09/07 05:22:12;;;;;;;5.47;4.80;;;17.70;98.00;;;;;;5050164;28;20429;-68
2023/09/07 05:24:40;;;;;;;5.07;4.50;;;17.80;97.80;;;;;;5047972;28;20447;-69
2023/09/07 05:27:08;;;;;;;5.30;4.80;;;17.80;97.80;;;;;;5049876;28;20433;-69
2023/09/07 05:29:35;;;;;;;6.47;4.70;;;17.80;97.10;;;;;;5049270;28;20430;-71
2023/09/07 05:32:01;;;;;;;5.93;5.03;;;17.80;97.20;;;;;;5051050;28;20432;-71
2023/09/07 05:34:29;;;;;;;6.00;5.10;;;17.80;97.10;;;;;;5067201;28;20437;-68
2023/09/07 05:36:56;;;;;;;5.20;4.70;;;17.80;96.80;;;;;;5053826;28;20471;-69
2023/09/07 05:39:24;;;;;;;5.03;4.60;;;17.80;96.60;;;;;;5050626;28;20456;-69
2023/09/07 05:41:51;;;;;;;5.43;4.93;;;17.80;96.50;;;;;;5046676;28;20428;-70
2023/09/07 05:44:17;;;;;;;6.40;4.60;;;17.80;96.30;;;;;;5047812;28;20425;-71
2023/09/07 05:46:44;;;;;;;5.38;4.88;;;17.90;96.50;;;;;;5050873;28;20429;-69
2023/09/07 05:49:11;;;;;;;5.30;4.80;;;17.90;96.50;;;;;;5048429;28;21103;-71
2023/09/07 05:51:37;;;;;;;6.10;5.35;;;17.90;96.50;;;;;;5048699;28;20434;-70
2023/09/07 05:54:04;;;;;;;5.85;4.60;;;17.90;95.50;;;;;;5053179;28;20451;-68
2023/09/07 05:56:33;;;;;;;5.47;4.97;;;17.90;94.80;;;;;;5051123;28;20437;-69
2023/09/07 05:59:00;;;;;;;5.30;4.80;;;18.00;95.30;;;;;;5055688;28;20511;-69
2023/09/07 06:01:26;;;;;;;5.17;4.67;;;17.90;94.70;;;;;;5049796;28;20901;-70
2023/09/07 06:03:54;;;;;;;6.68;4.60;;;17.90;94.90;;;;;;5056243;28;20419;-71
2023/09/07 06:06:21;;;;;;;5.32;4.82;;;18.00;95.30;;;;;;5051442;28;20425;-74
2023/09/07 06:08:47;;;;;;;5.28;4.78;;;18.00;94.50;;;;;;5049059;28;20923;-69
2023/09/07 06:11:14;;;;;;;7.10;5.00;;;18.00;94.70;;;;;;5057461;28;20440;-69
2023/09/07 06:13:42;;;;;;;5.03;4.53;;;18.10;95.40;;;;;;5052815;28;20438;-68
2023/09/07 06:16:09;;;;;;;8.48;5.20;;;18.20;95.50;;;;;;5072295;28;20409;-68
2023/09/07 06:18:36;;;;;;;5.00;4.50;;;18.30;95.40;;;;;;5062958;28;20429;-68
2023/09/07 06:21:04;;;;;;;5.05;4.55;;;18.30;94.40;;;;;;5049628;28;20796;-71
2023/09/07 06:23:31;;;;;;;4.80;4.30;;;18.40;93.70;;;;;;5049773;28;20460;-69
2023/09/07 06:25:58;;;;;;;5.03;4.53;;;18.40;93.40;;;;;;5047411;28;20940;-69
2023/09/07 06:28:24;;;;;;;5.15;4.60;;;18.50;93.60;;;;;;5050712;28;20450;-71
2023/09/07 06:30:52;;;;;;;6.28;4.47;;;18.50;93.10;;;;;;5055887;28;20421;-70
2023/09/07 06:33:19;;;;;;;5.72;4.60;;;18.60;93.00;;;;;;5051881;28;20773;-68
2023/09/07 06:35:46;;;;;;;5.13;4.63;;;18.70;92.80;;;;;;5051272;28;20413;-69
2023/09/07 06:38:13;;;;;;;5.20;4.30;;;18.70;92.60;;;;;;5046888;28;20473;-69
2023/09/07 06:40:39;;;;;;;5.18;4.43;;;18.80;92.90;;;;;;5047082;28;20800;-69
2023/09/07 06:43:06;;;;;;;4.90;4.40;;;18.90;92.50;;;;;;5057324;28;20445;-69
2023/09/07 06:45:35;;;;;;;4.43;3.92;;;19.00;91.40;;;;;;5049917;28;20508;-68
2023/09/07 06:48:03;;;;;;;4.55;4.15;;;19.00;91.60;;;;;;5057601;28;20787;-71
2023/09/07 06:50:30;;;;;;;5.00;4.10;;;19.10;91.40;;;;;;5046321;28;20946;-67
2023/09/07 06:52:57;;;;;;;4.47;3.95;;;19.20;91.30;;;;;;5048974;28;20437;-70
2023/09/07 06:55:24;;;;;;;4.13;3.72;;;19.30;90.80;;;;;;5049337;28;20433;-68
2023/09/07 06:57:50;;;;;;;6.50;4.40;;;19.40;90.40;;;;;;5048045;28;20425;-69
2023/09/07 07:00:17;;;;;;;4.60;4.20;;;19.40;89.80;;;;;;5051219;28;20425;-70
2023/09/07 07:02:44;;;;;;;6.90;4.40;;;19.50;89.20;;;;;;5048593;28;20433;-69
2023/09/07 07:05:12;;;;;;;6.68;4.60;;;19.50;89.20;;;;;;5051353;28;20489;-71
2023/09/07 07:07:40;;;;;;;5.20;4.30;;;19.60;88.20;;;;;;5055321;28;20440;-71
2023/09/07 07:10:08;;;;;;;6.68;4.07;;;19.70;88.50;;;;;;5050185;28;20410;-71
2023/09/07 07:12:34;;;;;;;7.17;4.03;;;19.80;87.50;;;;;;5049039;28;20438;-68
2023/09/07 07:15:02;;;;;;;5.80;4.20;;;20.00;86.60;;;;;;5056263;28;20437;-70
2023/09/07 07:17:28;;;;;;;4.80;4.30;;;20.00;86.00;;;;;;5055038;28;20433;-67
2023/09/07 07:19:55;;;;;;;5.30;4.20;;;20.20;86.40;;;;;;5053611;28;20435;-69
2023/09/07 07:22:23;;;;;;;4.47;3.80;;;20.30;85.90;;;;;;5050496;28;20943;-69
2023/09/07 07:24:50;;;;;;;5.20;3.80;;;20.40;85.40;;;;;;5049495;28;20438;-68
2023/09/07 07:27:16;;;;;;;5.50;4.47;;;20.50;84.00;;;;;;5066193;28;20395;-68
2023/09/07 07:29:44;;;;;;;4.85;3.92;;;20.70;82.30;;;;;;5074817;28;20417;-69
2023/09/07 07:32:11;;;;;;;4.60;4.00;;;20.80;81.70;;;;;;5077659;28;20400;-70
2023/09/07 07:34:37;;;;;;;5.90;3.85;;;20.80;82.00;;;;;;5059187;28;20905;-70
2023/09/07 07:37:04;;;;;;;4.93;4.30;;;21.00;82.20;;;;;;5053755;28;20436;-70
2023/09/07 07:39:32;;;;;;;4.50;4.10;;;21.10;81.50;;;;;;5052294;28;20421;-70
2023/09/07 07:41:59;;;;;;;4.30;3.90;;;21.20;80.60;;;;;;5050102;28;20785;-70
2023/09/07 07:44:26;;;;;;;4.50;4.00;;;21.40;80.60;;;;;;5049524;28;20914;-70
2023/09/07 07:46:52;;;;;;;4.90;3.60;;;21.50;79.20;;;;;;5051911;28;20418;-71
2023/09/07 07:49:19;;;;;;;5.93;4.20;;;21.70;78.20;;;;;;5047793;28;20437;-69
2023/09/07 07:51:46;;;;;;;4.45;4.05;;;21.80;76.90;;;;;;5051299;28;20444;-69
2023/09/07 07:54:12;;;;;;;4.03;3.72;;;21.90;76.80;;;;;;5048979;28;20438;-69
2023/09/07 07:56:41;;;;;;;4.03;3.70;;;22.00;76.30;;;;;;5049820;28;20429;-69
2023/09/07 07:59:08;;;;;;;4.70;3.80;;;22.10;76.30;;;;;;5049825;28;20436;-70
2023/09/07 08:01:36;;;;;;;5.00;4.10;;;22.30;75.30;;;;;;5050523;28;20437;-69
2023/09/07 08:04:03;;;;;;;4.68;4.05;;;22.40;74.70;;;;;;5049305;28;20421;-71
2023/09/07 08:06:29;;;;;;;5.45;4.28;;;22.50;74.50;;;;;;5047909;28;20498;-70
2023/09/07 08:08:56;;;;;;;5.07;3.47;;;22.60;74.00;;;;;;5055268;28;20435;-70
2023/09/07 08:11:23;;;;;;;5.05;3.85;;;22.80;74.20;;;;;;5051587;28;20948;-70
2023/09/07 08:13:51;;;;;;;6.20;4.05;;;23.00;73.50;;;;;;5076509;28;20542;-67
2023/09/07 08:16:18;;;;;;;5.15;3.72;;;23.10;72.80;;;;;;5070640;28;20416;-68
2023/09/07 08:18:45;;;;;;;4.57;4.18;;;23.20;71.90;;;;;;5074271;28;20415;-70
2023/09/07 08:21:12;;;;;;;4.90;3.90;;;23.40;71.40;;;;;;5069164;28;20472;-70
2023/09/07 08:23:39;;;;;;;3.90;3.50;;;23.50;70.80;;;;;;5078015;28;20439;-71
2023/09/07 08:26:06;;;;;;;5.50;3.65;;;23.60;71.00;;;;;;5063829;28;20433;-72
2023/09/07 08:28:33;;;;;;;4.60;3.85;;;23.80;70.70;;;;;;5050215;28;20500;-70
2023/09/07 08:31:01;;;;;;;3.92;3.45;;;24.00;69.50;;;;;;5048690;28;20916;-72
2023/09/07 08:33:28;;;;;;;4.70;3.70;;;24.10;69.00;;;;;;5049910;28;20429;-67
2023/09/07 08:35:56;;;;;;;5.65;4.05;;;24.30;68.50;;;;;;5068895;28;20479;-72
2023/09/07 08:38:27;;;;;;;4.95;3.90;;;24.40;68.00;;;;;;5061193;28;20419;-69
2023/09/07 08:40:55;;;;;;;4.38;3.30;;;24.60;67.10;;;;;;5053944;28;20429;-70
2023/09/07 08:43:22;;;;;;;4.13;3.72;;;24.60;66.00;;;;;;5052014;28;20433;-69
2023/09/07 08:45:53;;;;;;;4.10;3.80;;;24.70;65.60;;;;;;5053543;28;20426;-71
2023/09/07 08:48:22;;;;;;;3.90;3.60;;;24.80;65.70;;;;;;5053545;28;20524;-70
2023/09/07 08:50:52;;;;;;;4.00;3.70;;;24.80;65.70;;;;;;5049348;28;20426;-71
2023/09/07 08:53:20;;;;;;;5.03;3.60;;;24.80;65.50;;;;;;5049696;28;20432;-71
2023/09/07 08:55:47;;;;;;;3.90;3.50;;;25.00;65.30;;;;;;5059975;28;20980;-71
2023/09/07 08:58:14;;;;;;;3.40;3.10;;;25.10;63.80;;;;;;5056978;28;20429;-71
2023/09/07 09:00:43;;;;;;;3.20;2.90;;;25.20;64.00;;;;;;5046142;28;20829;-72
2023/09/07 09:03:10;;;;;;;4.15;3.78;;;25.30;63.20;;;;;;5048658;28;20425;-69
2023/09/07 09:05:40;;;;;;;4.10;3.40;;;25.50;62.10;;;;;;5048832;28;20446;-68
2023/09/07 09:08:07;;;;;;;3.30;3.10;;;25.60;60.90;;;;;;5048880;28;20482;-71
2023/09/07 09:10:34;;;;;;;3.90;3.50;;;25.70;61.20;;;;;;5052217;28;20409;-70
2023/09/07 09:13:01;;;;;;;3.92;3.50;;;25.90;59.80;;;;;;5057047;28;20731;-70
2023/09/07 09:15:28;;;;;;;3.60;3.30;;;25.90;59.20;;;;;;5050269;28;20803;-70
2023/09/07 09:17:54;;;;;;;3.90;3.50;;;26.00;60.30;;;;;;5054273;28;20435;-71
2023/09/07 09:20:23;;;;;;;3.80;3.50;;;26.10;59.60;;;;;;5054081;28;20445;-71
2023/09/07 09:22:53;;;;;;;4.10;3.50;;;26.20;58.80;;;;;;5052653;28;20432;-71
2023/09/07 09:25:20;;;;;;;3.83;3.20;;;26.20;58.40;;;;;;5050572;28;20446;-71
2023/09/07 09:27:47;;;;;;;3.83;3.40;;;26.20;58.10;;;;;;5052218;28;20432;-70
2023/09/07 09:30:16;;;;;;;3.45;3.10;;;26.30;58.10;;;;;;5048633;28;20807;-71
2023/09/07 09:32:43;;;;;;;4.20;3.80;;;26.50;57.80;;;;;;5060698;28;20495;-70
2023/09/07 09:35:10;;;;;;;3.60;3.30;;;26.70;56.50;;;;;;5049524;28;20537;-70
2023/09/07 09:37:45;;;;;;;4.07;3.30;;;26.80;55.60;;;;;;5056045;28;20439;-70
2023/09/07 09:40:14;;;;;;;3.90;3.40;;;26.80;55.70;;;;;;5051323;28;20487;-69
2023/09/07 09:42:42;;;;;;;4.00;3.25;;;26.90;55.40;;;;;;5051504;28;20409;-71
2023/09/07 09:45:10;;;;;;;3.80;3.50;;;27.10;55.90;;;;;;5050065;28;20444;-71
2023/09/07 09:47:40;;;;;;;3.33;3.03;;;27.30;55.00;;;;;;5050677;28;20426;-71
2023/09/07 09:50:09;;;;;;;5.05;3.20;;;27.40;52.90;;;;;;5067117;28;20389;-69
2023/09/07 09:52:37;;;;;;;3.60;3.30;;;27.50;52.00;;;;;;5059228;28;20435;-72
2023/09/07 09:55:07;;;;;;;3.65;3.22;;;27.50;52.20;;;;;;5050855;28;20424;-72
2023/09/07 09:57:36;;;;;;;3.70;3.38;;;27.60;52.90;;;;;;5052455;28;20986;-72
2023/09/07 10:00:19;;;;;;;3.40;3.10;;;27.90;52.60;;;;;;5052307;28;20433;-71
2023/09/07 10:02:49;;;;;;;3.30;3.00;;;28.20;51.10;;;;;;5049740;28;20913;-72
2023/09/07 10:05:17;;;;;;;3.88;3.20;;;28.40;50.20;;;;;;5048853;28;20908;-73
2023/09/07 10:07:45;;;;;;;3.10;2.90;;;28.50;49.90;;;;;;5050750;28;20412;-70
2023/09/07 10:10:13;;;;;;;3.30;3.10;;;28.60;49.00;;;;;;5046872;28;20798;-72
2023/09/07 10:12:46;;;;;;;3.17;2.88;;;28.70;48.30;;;;;;5051247;28;20918;-69
2023/09/07 10:15:23;;;;;;;3.58;3.28;;;28.90;48.70;;;;;;5049633;28;20513;-71
2023/09/07 10:17:52;;;;;;;2.90;2.60;;;28.90;48.20;;;;;;5048683;28;20448;-71
2023/09/07 10:20:22;;;;;;;3.00;2.80;;;29.10;48.10;;;;;;5048975;28;20425;-72
2023/09/07 10:22:49;;;;;;;3.00;2.80;;;29.10;47.10;;;;;;5046169;28;20437;-72
2023/09/07 10:25:21;;;;;;;3.20;2.90;;;29.10;47.40;;;;;;5058173;28;20794;-72
2023/09/07 10:27:49;;;;;;;3.00;2.80;;;29.20;47.30;;;;;;5053599;28;20413;-72
2023/09/07 10:30:19;;;;;;;3.13;2.83;;;29.40;47.40;;;;;;5048862;28;20437;-72
2023/09/07 10:32:46;;;;;;;2.97;2.70;;;29.60;46.80;;;;;;5049491;28;20429;-72
2023/09/07 10:35:16;;;;;;;3.47;3.17;;;29.80;46.30;;;;;;5045336;28;21013;-72
2023/09/07 10:37:46;;;;;;;3.07;2.83;;;30.10;45.60;;;;;;5044119;28;20429;-71
2023/09/07 10:40:15;;;;;;;2.97;2.70;;;30.20;44.20;;;;;;5068803;28;20605;-69
2023/09/07 10:42:42;;;;;;;3.35;2.83;;;30.20;44.80;;;;;;5055441;28;20487;-72
2023/09/07 10:45:12;;;;;;;2.60;2.40;;;30.20;44.60;;;;;;5048399;28;20497;-73
2023/09/07 10:47:43;;;;;;;2.72;2.53;;;30.10;44.30;;;;;;5048593;28;20431;-72
2023/09/07 10:50:12;;;;;;;2.80;2.60;;;30.00;44.30;;;;;;5046505;28;20955;-72
2023/09/07 10:52:39;;;;;;;3.50;2.90;;;30.20;44.40;;;;;;5048386;28;20500;-73
2023/09/07 10:55:07;;;;;;;3.00;2.70;;;30.20;43.60;;;;;;5053328;28;20437;-71
2023/09/07 10:57:42;;;;;;;2.90;2.70;;;30.40;44.20;;;;;;5045647;28;20433;-73
2023/09/07 11:00:12;;;;;;;3.25;2.80;;;30.40;43.40;;;;;;5050220;28;20998;-72
2023/09/07 11:02:38;;;;;;;3.27;2.80;;;30.60;43.20;;;;;;5051191;28;20908;-72
2023/09/07 11:05:06;;;;;;;3.08;2.78;;;30.60;42.80;;;;;;5083943;22;20450;-75
2023/09/07 11:07:33;;;;;;;4.80;2.78;;;30.60;43.00;;;;;;5074948;28;20448;-75
2023/09/07 11:10:00;;;;;;;2.72;2.50;;;30.50;43.00;;;;;;5081714;28;20445;-75
2023/09/07 11:12:27;;;;;;;3.27;2.60;;;30.60;43.60;;;;;;5082902;28;20434;-75
2023/09/07 11:14:55;;;;;;;4.47;2.72;;;30.80;43.60;;;;;;5071673;28;20431;-75
2023/09/07 11:17:28;;;;;;;3.70;2.50;;;31.10;43.30;;;;;;5052561;28;20521;-76
2023/09/07 11:19:55;;;;;;;3.77;2.90;;;31.50;42.40;;;;;;5055073;28;20837;-75
2023/09/07 11:22:23;;;;;;;3.03;2.73;;;31.50;41.80;;;;;;5050113;28;20429;-73
2023/09/07 11:24:49;;;;;;;2.88;2.67;;;31.50;41.50;;;;;;5051696;28;20470;-74
2023/09/07 11:27:18;;;;;;;2.70;2.50;;;31.50;41.50;;;;;;5052264;28;20428;-74
2023/09/07 11:29:52;;;;;;;2.70;2.50;;;31.70;41.30;;;;;;5053173;28;20409;-74
2023/09/07 11:32:21;;;;;;;3.37;2.20;;;31.70;41.00;;;;;;5055621;28;20422;-73
2023/09/07 11:34:50;;;;;;;2.80;2.60;;;31.70;40.60;;;;;;5061145;28;20409;-73
2023/09/07 11:37:17;;;;;;;2.45;2.25;;;31.70;40.20;;;;;;5059308;28;20506;-74
2023/09/07 11:39:44;;;;;;;2.90;2.70;;;31.70;40.60;;;;;;5058010;28;20427;-73
2023/09/07 11:42:11;;;;;;;3.95;2.55;;;31.70;40.70;;;;;;5058015;28;20427;-74
2023/09/07 11:44:37;;;;;;;3.20;2.78;;;31.70;40.50;;;;;;5055465;28;20899;-74
2023/09/07 11:47:04;;;;;;;3.00;2.70;;;31.80;40.90;;;;;;5056187;28;20450;-73
2023/09/07 11:49:31;;;;;;;2.73;2.53;;;32.00;41.00;;;;;;5058929;28;20424;-76
2023/09/07 11:52:00;;;;;;;2.58;2.40;;;32.30;40.30;;;;;;5057545;28;20428;-76
2023/09/07 11:54:27;;;;;;;2.40;2.20;;;32.50;39.80;;;;;;5052205;28;20430;-73
2023/09/07 11:56:54;;;;;;;2.80;2.50;;;32.50;39.70;;;;;;5057143;28;20467;-73
2023/09/07 11:59:20;;;;;;;3.10;2.50;;;32.70;39.10;;;;;;5056734;28;21040;-74
2023/09/07 12:01:47;;;;;;;3.05;2.20;;;32.70;39.00;;;;;;5059104;28;20434;-74
2023/09/07 12:04:14;;;;;;;2.40;2.20;;;32.70;38.80;;;;;;5057045;28;20533;-74
2023/09/07 12:06:40;;;;;;;2.47;2.28;;;32.90;38.50;;;;;;5064057;28;20442;-76
2023/09/07 12:09:09;;;;;;;2.50;2.30;;;33.20;38.10;;;;;;5050678;28;20410;-76
2023/09/07 12:11:36;;;;;;;2.50;2.10;;;33.20;37.40;;;;;;5049697;28;20505;-75
2023/09/07 12:14:03;;;;;;;2.50;2.40;;;33.20;37.00;;;;;;5047916;28;20417;-75
2023/09/07 12:16:30;;;;;;;2.40;2.20;;;33.20;37.10;;;;;;5067556;28;20428;-75
2023/09/07 12:18:57;;;;;;;2.78;2.58;;;33.30;37.20;;;;;;5059290;28;20434;-73
2023/09/07 12:21:24;;;;;;;2.10;2.00;;;33.30;37.10;;;;;;5058324;28;20422;-73
2023/09/07 12:23:50;;;;;;;2.27;2.07;;;33.50;37.60;;;;;;5060447;28;20431;-75
2023/09/07 12:26:20;;;;;;;2.30;2.20;;;33.80;37.50;;;;;;5054469;28;20913;-74
2023/09/07 12:28:47;;;;;;;2.40;2.20;;;33.90;37.00;;;;;;5060416;28;20482;-75
2023/09/07 12:31:14;;;;;;;2.17;1.98;;;33.90;37.00;;;;;;5060469;28;20527;-73
2023/09/07 12:33:41;;;;;;;2.50;1.90;;;34.10;35.90;;;;;;5044432;28;20916;-74
2023/09/07 12:36:10;;;;;;;2.10;2.00;;;34.20;36.10;;;;;;5053581;28;20404;-75
2023/09/07 12:38:36;;;;;;;2.42;2.20;;;34.50;36.00;;;;;;5057716;28;20427;-73
2023/09/07 12:41:03;;;;;;;2.63;2.10;;;34.60;35.10;;;;;;5055008;28;20419;-75
2023/09/07 12:43:32;;;;;;;1.90;1.80;;;34.60;34.80;;;;;;5054055;28;20489;-73
2023/09/07 12:45:59;;;;;;;3.20;2.00;;;34.70;34.80;;;;;;5049426;28;20504;-74
2023/09/07 12:48:25;;;;;;;2.30;2.10;;;34.80;34.60;;;;;;5047632;28;20475;-73
2023/09/07 12:50:52;;;;;;;1.90;1.80;;;34.90;34.10;;;;;;5062329;28;20908;-73